Time;durP1;ratioP1;P1;durP2;ratioP2;P2;SDS_P1;SDS_P2;PMS_P1;PMS_P2;Temp;Humidity;BMP_temperature;BMP_pressure;BME280_temperature;BME280_humidity;BME280_pressure;Samples;Min_cycle;Max_cycle;Signal;HPM_P1;HPM_P2
2023/09/16 00:01:12;;;;;;;12.70;10.70;;;;;;;24.41;60.37;101047.26;108110;1281;22265;-60
2023/09/16 00:03:37;;;;;;;11.40;10.10;;;;;;;24.42;60.51;101051.28;108136;1282;22019;-72
2023/09/16 00:06:04;;;;;;;12.00;10.10;;;;;;;24.44;60.42;101054.23;108135;1284;21990;-72
2023/09/16 00:08:35;;;;;;;15.90;10.40;;;;;;;24.46;60.57;101053.93;108104;1286;21992;-58
2023/09/16 00:11:00;;;;;;;12.10;10.40;;;;;;;24.48;60.54;101055.98;108111;1288;22048;-72
2023/09/16 00:13:26;;;;;;;13.70;10.80;;;;;;;24.51;60.39;101059.39;108107;1283;21996;-58
2023/09/16 00:15:52;;;;;;;11.00;9.60;;;;;;;24.52;60.57;101060.04;108131;1286;21994;-71
2023/09/16 00:18:18;;;;;;;10.30;9.20;;;;;;;24.52;60.51;101055.74;108111;1283;21993;-58
2023/09/16 00:20:44;;;;;;;12.90;10.20;;;;;;;24.52;60.53;101056.44;108100;1283;21994;-71
2023/09/16 00:23:10;;;;;;;12.50;10.10;;;;;;;24.50;60.23;101059.81;108163;1286;23742;-58
2023/09/16 00:25:36;;;;;;;12.10;10.10;;;;;;;24.48;60.21;101060.29;108083;1287;23484;-60
2023/09/16 00:28:06;;;;;;;15.00;10.80;;;;;;;24.45;60.20;101057.56;108153;1280;21990;-58
2023/09/16 00:30:35;;;;;;;11.40;9.70;;;;;;;24.43;60.25;101059.84;108255;1288;21998;-71
2023/09/16 00:33:04;;;;;;;11.60;9.80;;;;;;;24.43;60.15;101057.37;108085;1288;21990;-58
2023/09/16 00:35:29;;;;;;;11.50;10.10;;;;;;;24.42;60.02;101058.67;108121;1283;21981;-59
2023/09/16 00:37:55;;;;;;;10.60;9.30;;;;;;;24.39;59.92;101061.55;108096;1287;21993;-59
2023/09/16 00:40:20;;;;;;;12.40;9.90;;;;;;;24.36;60.01;101062.96;107837;1286;21992;-72
2023/09/16 00:42:46;;;;;;;11.40;10.20;;;;;;;24.33;60.10;101065.26;108106;1283;22005;-59
2023/09/16 00:45:12;;;;;;;11.80;9.80;;;;;;;24.31;60.34;101066.84;108102;1288;21996;-59
2023/09/16 00:47:40;;;;;;;10.80;9.20;;;;;;;24.29;60.28;101067.29;108146;1283;22050;-72
2023/09/16 00:50:07;;;;;;;11.30;10.00;;;;;;;24.27;60.14;101071.54;108127;1280;21990;-59
2023/09/16 00:52:34;;;;;;;11.60;9.80;;;;;;;24.25;60.09;101075.60;107875;1283;23659;-58
2023/09/16 00:54:59;;;;;;;11.20;9.80;;;;;;;24.22;60.19;101081.55;108103;1280;22001;-58
2023/09/16 00:57:25;;;;;;;11.50;9.60;;;;;;;24.22;59.94;101088.89;107857;1279;23960;-72
2023/09/16 00:59:50;;;;;;;12.00;9.40;;;;;;;24.19;59.82;101090.45;107819;1283;22000;-59
2023/09/16 01:02:16;;;;;;;11.90;9.30;;;;;;;24.14;59.81;101092.71;107885;1280;21999;-59
2023/09/16 01:04:42;;;;;;;11.20;9.30;;;;;;;24.09;59.72;101095.73;108199;1280;21997;-73
2023/09/16 01:07:08;;;;;;;10.50;9.40;;;;;;;23.98;60.22;101093.13;107843;1287;21997;-73
2023/09/16 01:09:33;;;;;;;12.40;10.30;;;;;;;23.89;60.24;101092.69;108109;1287;22461;-59
2023/09/16 01:11:59;;;;;;;12.80;10.00;;;;;;;23.83;60.22;101092.52;108151;1288;21989;-58
2023/09/16 01:14:24;;;;;;;12.10;9.70;;;;;;;23.78;60.29;101092.61;108137;1288;21991;-59
2023/09/16 01:17:03;;;;;;;11.80;10.20;;;;;;;23.73;60.39;101095.73;108118;1288;22048;-72
2023/09/16 01:19:47;;;;;;;14.30;11.20;;;;;;;23.68;60.39;101092.83;108161;1283;21995;-73
2023/09/16 01:22:14;;;;;;;12.10;9.50;;;;;;;23.62;60.47;101096.89;107902;1286;21984;-73
2023/09/16 01:24:40;;;;;;;12.30;9.60;;;;;;;23.59;60.61;101099.61;107816;1288;21994;-73
2023/09/16 01:27:07;;;;;;;11.40;10.10;;;;;;;23.55;60.53;101098.56;108146;1283;21994;-72
2023/09/16 01:29:33;;;;;;;11.50;9.80;;;;;;;23.53;60.74;101100.63;108163;1281;21992;-58
2023/09/16 01:32:00;;;;;;;14.30;10.70;;;;;;;23.52;60.90;101105.15;107810;1288;21990;-73
2023/09/16 01:34:39;;;;;;;11.90;10.10;;;;;;;23.53;60.85;101101.56;107910;1288;22103;-59
2023/09/16 01:37:06;;;;;;;11.80;10.00;;;;;;;23.53;60.97;101101.34;108102;1287;21993;-60
2023/09/16 01:39:31;;;;;;;12.50;11.10;;;;;;;23.54;61.07;101100.77;108140;1281;21992;-59
2023/09/16 01:41:57;;;;;;;15.40;10.60;;;;;;;23.55;60.97;101100.15;107855;1286;21990;-73
2023/09/16 01:44:22;;;;;;;14.60;10.30;;;;;;;23.63;60.74;101102.42;108118;1284;21992;-58
2023/09/16 01:46:48;;;;;;;12.30;9.90;;;;;;;23.67;60.69;101105.73;108107;1283;22860;-58
2023/09/16 01:49:13;;;;;;;11.00;9.00;;;;;;;23.69;60.78;101105.11;108090;1288;21989;-72
2023/09/16 01:51:39;;;;;;;14.40;9.90;;;;;;;23.70;60.61;101102.71;108132;1281;23674;-58
2023/09/16 01:54:05;;;;;;;11.80;10.20;;;;;;;23.69;60.76;101098.48;108104;1277;22006;-59
2023/09/16 01:56:30;;;;;;;11.90;9.50;;;;;;;23.73;60.83;101097.73;108138;1288;21993;-60
2023/09/16 01:58:56;;;;;;;15.90;10.50;;;;;;;23.79;60.72;101098.30;108118;1288;21987;-73
2023/09/16 02:01:21;;;;;;;13.40;10.60;;;;;;;23.84;60.54;101103.05;108101;1284;21999;-73
2023/09/16 02:03:47;;;;;;;13.50;10.00;;;;;;;23.85;60.24;101103.33;108138;1287;21995;-58
2023/09/16 02:06:13;;;;;;;10.40;8.90;;;;;;;23.86;60.38;101101.48;108097;1283;21994;-59
2023/09/16 02:08:38;;;;;;;13.70;10.10;;;;;;;23.86;60.20;101098.64;108110;1278;21992;-72
2023/09/16 02:11:05;;;;;;;13.60;9.90;;;;;;;23.85;60.11;101099.04;108123;1277;22174;-59
2023/09/16 02:13:35;;;;;;;11.40;9.30;;;;;;;23.84;60.12;101102.31;108101;1288;21997;-65
2023/09/16 02:16:01;;;;;;;14.60;9.70;;;;;;;23.86;60.02;101112.61;108129;1276;21998;-73
2023/09/16 02:18:27;;;;;;;11.60;9.00;;;;;;;23.86;60.09;101115.41;108096;1283;21990;-72
2023/09/16 02:20:52;;;;;;;13.10;9.60;;;;;;;23.87;60.03;101115.55;108104;1288;21994;-70
2023/09/16 02:23:18;;;;;;;18.30;10.00;;;;;;;23.87;60.08;101113.23;108125;1283;21990;-73
2023/09/16 02:25:44;;;;;;;13.40;10.60;;;;;;;23.88;60.14;101115.89;108114;1280;21994;-72
2023/09/16 02:28:09;;;;;;;13.90;10.40;;;;;;;23.89;60.17;101115.44;108135;1288;21987;-59
2023/09/16 02:30:35;;;;;;;12.00;9.40;;;;;;;23.90;60.20;101123.27;108071;1286;22028;-58
2023/09/16 02:33:00;;;;;;;15.00;9.80;;;;;;;23.94;60.00;101130.63;108098;1283;21996;-72
2023/09/16 02:35:26;;;;;;;12.90;9.70;;;;;;;23.99;60.06;101130.73;108092;1288;22151;-60
2023/09/16 02:37:52;;;;;;;11.10;9.30;;;;;;;23.98;59.83;101131.29;108088;1287;21986;-59
2023/09/16 02:40:17;;;;;;;14.60;10.10;;;;;;;23.97;59.69;101131.50;108135;1287;21993;-72
2023/09/16 02:42:43;;;;;;;13.60;10.00;;;;;;;23.97;59.69;101133.64;107900;1288;21987;-72
2023/09/16 02:45:09;;;;;;;14.20;10.50;;;;;;;23.95;59.77;101134.11;108193;1277;21993;-71
2023/09/16 02:47:34;;;;;;;14.30;10.40;;;;;;;23.91;59.57;101131.29;108189;1283;22045;-61
2023/09/16 02:50:00;;;;;;;14.80;11.30;;;;;;;23.86;59.42;101137.49;108164;1286;21981;-59
2023/09/16 02:52:26;;;;;;;16.10;12.00;;;;;;;23.78;59.42;101143.15;108140;1283;23395;-59
2023/09/16 02:54:51;;;;;;;17.10;11.50;;;;;;;23.70;59.48;101148.02;108106;1283;21991;-72
2023/09/16 02:57:17;;;;;;;16.80;12.00;;;;;;;23.67;59.72;101147.50;108087;1277;22029;-72
2023/09/16 02:59:43;;;;;;;15.20;11.30;;;;;;;23.64;59.88;101146.98;108128;1284;21992;-58
2023/09/16 03:02:09;;;;;;;17.60;11.50;;;;;;;23.60;59.70;101146.48;108109;1280;21986;-59
2023/09/16 03:04:34;;;;;;;13.50;11.10;;;;;;;23.55;59.79;101151.58;108101;1288;21997;-74
2023/09/16 03:07:00;;;;;;;16.00;11.40;;;;;;;23.50;59.58;101154.73;107815;1288;23612;-60
2023/09/16 03:09:25;;;;;;;19.00;11.90;;;;;;;23.42;59.54;101157.80;108111;1288;21995;-73
2023/09/16 03:11:51;;;;;;;14.70;11.10;;;;;;;23.36;59.65;101163.70;108119;1287;21998;-59
2023/09/16 03:14:16;;;;;;;13.90;11.60;;;;;;;23.31;59.90;101163.97;108109;1288;21990;-58
2023/09/16 03:16:42;;;;;;;14.70;11.70;;;;;;;23.27;59.95;101167.59;108133;1283;21993;-58
2023/09/16 03:19:08;;;;;;;15.70;10.70;;;;;;;23.24;60.26;101167.55;108140;1287;21989;-59
2023/09/16 03:21:33;;;;;;;13.50;10.30;;;;;;;23.21;60.09;101165.89;108133;1278;22001;-60
2023/09/16 03:23:59;;;;;;;14.00;10.00;;;;;;;23.19;60.35;101170.09;108137;1288;22027;-73
2023/09/16 03:26:25;;;;;;;13.80;11.00;;;;;;;23.16;60.28;101172.77;108112;1283;23615;-58
2023/09/16 03:28:52;;;;;;;14.40;10.70;;;;;;;23.14;60.47;101173.05;108135;1284;21995;-58
2023/09/16 03:31:18;;;;;;;14.40;11.20;;;;;;;23.12;60.32;101174.39;108139;1284;22034;-73
2023/09/16 03:33:44;;;;;;;12.80;11.10;;;;;;;23.13;60.52;101175.25;108120;1288;21994;-73
2023/09/16 03:36:09;;;;;;;16.10;12.20;;;;;;;23.12;60.50;101178.36;108113;1283;24310;-59
2023/09/16 03:38:35;;;;;;;14.30;11.50;;;;;;;23.10;60.23;101177.21;108126;1288;21989;-58
2023/09/16 03:41:01;;;;;;;14.10;11.00;;;;;;;23.06;60.37;101181.33;108119;1288;22455;-59
2023/09/16 03:43:27;;;;;;;17.00;10.80;;;;;;;23.04;60.54;101180.55;108124;1284;21996;-72
2023/09/16 03:45:53;;;;;;;15.30;10.80;;;;;;;23.03;60.54;101183.44;108070;1286;22002;-61
2023/09/16 03:48:19;;;;;;;14.50;10.50;;;;;;;23.03;60.56;101185.41;108034;1277;22013;-73
2023/09/16 03:50:45;;;;;;;14.50;10.10;;;;;;;23.03;60.62;101185.93;108109;1288;21987;-72
2023/09/16 03:53:10;;;;;;;13.30;10.60;;;;;;;23.03;60.55;101187.57;108126;1281;22076;-73
2023/09/16 03:55:36;;;;;;;15.50;11.60;;;;;;;23.03;60.48;101186.52;108142;1287;22032;-59
2023/09/16 03:58:02;;;;;;;16.40;11.40;;;;;;;23.02;60.71;101185.31;108128;1288;22002;-73
2023/09/16 04:00:28;;;;;;;15.50;11.50;;;;;;;23.00;60.59;101183.80;108100;1288;23295;-72
2023/09/16 04:02:54;;;;;;;13.90;9.90;;;;;;;22.95;60.39;101184.22;108150;1288;23698;-59
2023/09/16 04:05:19;;;;;;;14.90;10.40;;;;;;;22.92;60.51;101191.91;108130;1283;22002;-73
2023/09/16 04:07:45;;;;;;;12.40;9.70;;;;;;;22.91;60.75;101194.30;108165;1283;21994;-60
2023/09/16 04:10:11;;;;;;;15.90;9.80;;;;;;;22.91;60.75;101192.34;108100;1288;22455;-59
2023/09/16 04:12:37;;;;;;;12.80;9.60;;;;;;;22.90;60.64;101191.46;108106;1288;21997;-59
2023/09/16 04:15:03;;;;;;;15.40;10.80;;;;;;;22.90;60.82;101193.96;108087;1288;22084;-58
2023/09/16 04:17:29;;;;;;;13.30;10.40;;;;;;;22.91;60.76;101196.26;108161;1280;21998;-59
2023/09/16 04:19:54;;;;;;;13.80;10.30;;;;;;;22.92;60.93;101196.20;108132;1277;21997;-74
2023/09/16 04:22:20;;;;;;;14.80;10.80;;;;;;;22.93;60.90;101197.95;108147;1283;22053;-59
2023/09/16 04:24:46;;;;;;;13.80;9.70;;;;;;;22.95;60.95;101197.33;108116;1283;21994;-71
2023/09/16 04:27:12;;;;;;;14.70;10.40;;;;;;;22.96;61.02;101199.20;108133;1288;21990;-72
2023/09/16 04:29:37;;;;;;;15.10;9.90;;;;;;;22.98;60.96;101201.10;107887;1280;21994;-58
2023/09/16 04:32:03;;;;;;;16.60;10.60;;;;;;;23.00;60.96;101204.19;108123;1283;22031;-72
2023/09/16 04:34:29;;;;;;;17.00;10.50;;;;;;;23.02;61.13;101210.50;108128;1279;23847;-73
2023/09/16 04:36:55;;;;;;;14.00;9.80;;;;;;;23.03;61.18;101212.42;108115;1278;21996;-60
2023/09/16 04:39:24;;;;;;;15.60;10.20;;;;;;;23.06;61.15;101219.84;108138;1280;21996;-70
2023/09/16 04:41:53;;;;;;;13.40;10.10;;;;;;;23.09;61.29;101225.06;108114;1288;21998;-70
2023/09/16 04:44:22;;;;;;;12.20;9.20;;;;;;;23.12;61.41;101228.27;107882;1287;23037;-58
2023/09/16 04:46:48;;;;;;;12.70;9.50;;;;;;;23.16;61.31;101230.41;108157;1288;22038;-57
2023/09/16 04:49:14;;;;;;;15.70;11.40;;;;;;;23.20;61.44;101238.77;108096;1284;22457;-73
2023/09/16 04:51:39;;;;;;;13.60;10.40;;;;;;;23.26;61.41;101237.06;108140;1288;23605;-58
2023/09/16 04:54:07;;;;;;;14.40;11.10;;;;;;;23.33;61.45;101238.70;108150;1283;22137;-65
2023/09/16 04:56:34;;;;;;;15.50;10.80;;;;;;;23.38;61.31;101239.86;108166;1288;22030;-73
2023/09/16 04:59:00;;;;;;;19.40;11.50;;;;;;;23.41;61.39;101240.22;108153;1288;22000;-73
2023/09/16 05:01:26;;;;;;;15.60;10.60;;;;;;;23.47;61.40;101242.08;107867;1286;23636;-59
2023/09/16 05:03:52;;;;;;;14.90;10.80;;;;;;;23.53;61.54;101241.40;108095;1281;22025;-58
2023/09/16 05:06:17;;;;;;;14.70;10.40;;;;;;;23.57;61.28;101246.38;108061;1283;23642;-72
2023/09/16 05:08:43;;;;;;;14.10;10.40;;;;;;;23.60;61.34;101247.30;109191;1288;21989;-72
2023/09/16 05:11:09;;;;;;;16.50;10.40;;;;;;;23.64;61.04;101249.63;108128;1286;22003;-58
2023/09/16 05:13:35;;;;;;;14.90;11.10;;;;;;;23.68;61.24;101247.42;108126;1288;21998;-72
2023/09/16 05:16:01;;;;;;;14.00;10.30;;;;;;;23.73;61.26;101247.16;108119;1283;22004;-71
2023/09/16 05:18:26;;;;;;;18.20;12.10;;;;;;;23.79;61.32;101244.31;108154;1288;21996;-59
2023/09/16 05:20:52;;;;;;;16.20;11.30;;;;;;;23.84;61.29;101243.86;108126;1288;21994;-72
2023/09/16 05:23:18;;;;;;;16.20;12.00;;;;;;;23.90;61.36;101239.96;108146;1288;21992;-72
2023/09/16 05:25:45;;;;;;;14.70;11.10;;;;;;;23.97;61.41;101240.85;108099;1288;22069;-58
2023/09/16 05:28:11;;;;;;;14.20;11.20;;;;;;;24.05;61.51;101246.89;108161;1284;24362;-71
2023/09/16 05:30:36;;;;;;;16.00;11.70;;;;;;;24.11;61.35;101249.93;108129;1286;22022;-58
2023/09/16 05:33:02;;;;;;;15.90;11.30;;;;;;;24.17;61.51;101251.58;108098;1284;22004;-73
2023/09/16 05:35:28;;;;;;;18.00;11.80;;;;;;;24.25;61.36;101252.98;108110;1280;21995;-59
2023/09/16 05:37:53;;;;;;;16.80;12.10;;;;;;;24.28;61.02;101256.86;108109;1288;22037;-59
2023/09/16 05:40:19;;;;;;;15.60;11.60;;;;;;;24.34;61.03;101258.38;108144;1277;21992;-72
2023/09/16 05:42:45;;;;;;;16.20;12.80;;;;;;;24.40;61.24;101263.26;108105;1288;21998;-71
2023/09/16 05:45:11;;;;;;;16.10;11.30;;;;;;;24.41;60.86;101263.38;108148;1286;22856;-59
2023/09/16 05:47:37;;;;;;;15.90;11.60;;;;;;;24.43;60.94;101266.85;108112;1278;22050;-73
2023/09/16 05:50:03;;;;;;;15.80;11.10;;;;;;;24.47;61.02;101270.94;108122;1286;21992;-73
2023/09/16 05:52:29;;;;;;;12.80;9.70;;;;;;;24.53;61.06;101273.43;108117;1288;21990;-71
2023/09/16 05:54:54;;;;;;;13.60;8.90;;;;;;;24.60;60.86;101269.08;108166;1280;21990;-71
2023/09/16 05:57:20;;;;;;;14.10;9.90;;;;;;;24.63;60.24;101271.04;107814;1288;21981;-73
2023/09/16 05:59:45;;;;;;;13.40;10.00;;;;;;;24.67;60.03;101272.84;108125;1280;22002;-67
2023/09/16 06:02:11;;;;;;;13.10;9.60;;;;;;;24.75;60.36;101271.86;108116;1283;21994;-71
2023/09/16 06:04:37;;;;;;;12.80;9.30;;;;;;;24.84;60.11;101276.36;108122;1288;22196;-59
2023/09/16 06:07:02;;;;;;;13.20;9.40;;;;;;;24.92;60.05;101278.77;108125;1288;21990;-73
2023/09/16 06:09:28;;;;;;;10.00;8.40;;;;;;;25.08;60.56;101279.11;108126;1288;24473;-60
2023/09/16 06:11:54;;;;;;;10.50;8.00;;;;;;;25.32;61.06;101281.79;108162;1288;22097;-72
2023/09/16 06:14:19;;;;;;;10.20;7.30;;;;;;;25.56;60.59;101282.54;108088;1287;23692;-59
2023/09/16 06:16:45;;;;;;;11.80;7.30;;;;;;;25.75;60.43;101283.52;108137;1288;22001;-59
2023/09/16 06:19:10;;;;;;;9.90;7.20;;;;;;;25.92;59.75;101284.30;108106;1288;21995;-59
2023/09/16 06:21:36;;;;;;;10.60;7.20;;;;;;;26.01;58.87;101289.68;108133;1288;21994;-60
2023/09/16 06:24:02;;;;;;;10.60;7.40;;;;;;;26.07;58.56;101289.82;108097;1286;21978;-60
2023/09/16 06:26:28;;;;;;;7.80;6.50;;;;;;;26.14;58.66;101284.38;108159;1288;21995;-59
2023/09/16 06:28:53;;;;;;;8.70;7.00;;;;;;;26.22;58.05;101284.77;107848;1288;21990;-73
2023/09/16 06:31:19;;;;;;;9.50;7.40;;;;;;;26.22;57.28;101289.27;108141;1281;21995;-73
2023/09/16 06:33:45;;;;;;;9.00;7.10;;;;;;;26.18;57.29;101289.33;107834;1288;21995;-74
2023/09/16 06:36:10;;;;;;;9.00;7.20;;;;;;;26.28;57.86;101287.97;108123;1288;21986;-59
2023/09/16 06:38:36;;;;;;;8.50;7.30;;;;;;;26.38;57.14;101292.02;108140;1288;21997;-73
2023/09/16 06:41:01;;;;;;;10.40;7.60;;;;;;;26.44;57.27;101295.04;108101;1283;21983;-73
2023/09/16 06:43:27;;;;;;;9.20;7.20;;;;;;;26.53;57.33;101301.13;108116;1283;23065;-60
2023/09/16 06:45:53;;;;;;;9.00;6.70;;;;;;;26.72;57.92;101305.15;108120;1280;21989;-72
2023/09/16 06:48:18;;;;;;;9.80;6.80;;;;;;;26.91;57.09;101302.14;108097;1287;21988;-59
2023/09/16 06:50:44;;;;;;;8.90;7.10;;;;;;;26.99;56.36;101308.59;108127;1288;21992;-59
2023/09/16 06:53:09;;;;;;;8.80;7.40;;;;;;;27.01;55.95;101307.91;108131;1278;21997;-59
2023/09/16 06:55:35;;;;;;;8.10;6.50;;;;;;;26.95;55.28;101307.75;108132;1288;21999;-60
2023/09/16 06:58:04;;;;;;;9.90;7.10;;;;;;;26.91;55.60;101307.50;108097;1287;21995;-72
2023/09/16 07:00:30;;;;;;;8.70;6.60;;;;;;;27.00;56.00;101309.80;108156;1284;21989;-72
2023/09/16 07:02:58;;;;;;;9.20;6.60;;;;;;;27.10;55.70;101308.23;108113;1287;21994;-73
2023/09/16 07:05:24;;;;;;;8.70;7.30;;;;;;;27.11;54.93;101310.14;108184;1284;21992;-59
2023/09/16 07:07:52;;;;;;;9.70;6.90;;;;;;;27.13;55.62;101311.08;108186;1287;22002;-59
2023/09/16 07:10:19;;;;;;;7.60;6.10;;;;;;;27.33;56.54;101314.38;108173;1288;22007;-73
2023/09/16 07:12:45;;;;;;;9.80;6.20;;;;;;;27.63;56.54;101315.05;108149;1288;22027;-72
2023/09/16 07:15:10;;;;;;;6.00;5.20;;;;;;;27.91;56.38;101307.70;108123;1288;23349;-59
2023/09/16 07:17:36;;;;;;;7.20;5.70;;;;;;;28.24;56.32;101309.02;108103;1288;22104;-60
2023/09/16 07:20:01;;;;;;;6.60;5.30;;;;;;;28.62;56.33;101303.02;108149;1283;22018;-73
2023/09/16 07:22:27;;;;;;;6.50;5.30;;;;;;;28.89;54.94;101309.49;107941;1288;21992;-72
2023/09/16 07:24:53;;;;;;;6.80;5.30;;;;;;;28.93;53.92;101308.48;108119;1278;22009;-60
2023/09/16 07:27:18;;;;;;;7.00;5.50;;;;;;;28.94;53.45;101309.47;108121;1288;21987;-59
2023/09/16 07:29:44;;;;;;;7.90;5.40;;;;;;;29.04;53.76;101308.77;108147;1280;22024;-60
2023/09/16 07:32:09;;;;;;;9.20;5.60;;;;;;;29.19;53.44;101311.23;108138;1283;22049;-63
2023/09/16 07:34:35;;;;;;;6.80;5.40;;;;;;;29.20;51.94;101314.43;108163;1288;23659;-59
2023/09/16 07:37:03;;;;;;;8.50;6.10;;;;;;;29.01;51.21;101313.84;107876;1288;21997;-73
2023/09/16 07:39:29;;;;;;;9.50;5.80;;;;;;;28.85;51.45;101311.67;108112;1288;22029;-72
2023/09/16 07:41:55;;;;;;;8.40;5.60;;;;;;;28.92;52.36;101311.14;108122;1288;22012;-68
2023/09/16 07:44:20;;;;;;;6.90;5.10;;;;;;;29.12;52.61;101306.31;108093;1288;21993;-59
2023/09/16 07:46:48;;;;;;;5.80;4.80;;;;;;;29.38;52.54;101306.76;108122;1288;22003;-60
2023/09/16 07:49:17;;;;;;;8.00;5.90;;;;;;;29.59;52.27;101305.27;108122;1286;21990;-72
2023/09/16 07:51:45;;;;;;;7.90;5.10;;;;;;;29.76;51.75;101306.17;108204;1287;22002;-72
2023/09/16 07:54:14;;;;;;;7.10;5.10;;;;;;;29.87;51.33;101304.92;108171;1283;21992;-61
2023/09/16 07:56:40;;;;;;;6.80;5.40;;;;;;;29.94;50.83;101305.44;108161;1288;21994;-60
2023/09/16 07:59:05;;;;;;;7.80;5.50;;;;;;;29.90;49.77;101305.02;108161;1283;21989;-60
2023/09/16 08:01:31;;;;;;;7.30;5.40;;;;;;;29.65;48.99;101304.63;108114;1288;21992;-72
2023/09/16 08:03:57;;;;;;;7.00;5.60;;;;;;;29.44;49.02;101306.11;108094;1288;21992;-72
2023/09/16 08:06:23;;;;;;;9.50;6.10;;;;;;;29.25;48.86;101307.69;108127;1282;21987;-74
2023/09/16 08:08:49;;;;;;;7.00;5.50;;;;;;;29.12;49.07;101304.52;108118;1288;23657;-60
2023/09/16 08:11:15;;;;;;;8.90;6.10;;;;;;;29.13;49.76;101301.38;108150;1288;21992;-64
2023/09/16 08:13:41;;;;;;;9.80;6.40;;;;;;;29.29;50.04;101301.48;108141;1288;21991;-72
2023/09/16 08:16:06;;;;;;;8.10;6.70;;;;;;;29.55;50.44;101299.29;107897;1287;22030;-59
2023/09/16 08:18:32;;;;;;;8.90;6.60;;;;;;;29.80;49.92;101299.34;108115;1287;22031;-59
2023/09/16 08:21:00;;;;;;;7.00;5.40;;;;;;;29.99;49.62;101306.33;108109;1284;21988;-72
2023/09/16 08:23:26;;;;;;;6.60;5.20;;;;;;;30.16;48.93;101301.39;107874;1283;22026;-60
2023/09/16 08:25:51;;;;;;;18.40;6.00;;;;;;;30.20;48.59;101306.09;108119;1281;22007;-59
2023/09/16 08:28:17;;;;;;;10.00;6.30;;;;;;;30.32;48.39;101301.67;108062;1288;21994;-74
2023/09/16 08:30:42;;;;;;;14.50;5.60;;;;;;;30.36;47.76;101303.23;107802;1285;21994;-59
2023/09/16 08:33:09;;;;;;;10.70;5.60;;;;;;;30.42;48.18;101295.63;108118;1280;22000;-73
2023/09/16 08:35:35;;;;;;;10.20;5.50;;;;;;;30.53;48.05;101294.94;108182;1288;22027;-60
2023/09/16 08:38:02;;;;;;;16.60;5.60;;;;;;;30.66;48.32;101295.84;108135;1288;21990;-69
2023/09/16 08:40:32;;;;;;;9.10;5.20;;;;;;;31.08;48.90;101289.14;108097;1288;22754;-73
2023/09/16 08:43:24;;;;;;;10.00;5.50;;;;;;;31.50;48.12;101291.36;107865;1288;22738;-72
2023/09/16 08:46:00;;;;;;;7.40;5.40;;;;;;;31.72;47.19;101291.11;107890;1288;21993;-60
2023/09/16 08:48:26;;;;;;;6.80;5.00;;;;;;;31.83;46.98;101282.48;108111;1288;21997;-60
2023/09/16 08:50:53;;;;;;;7.80;5.30;;;;;;;32.12;47.39;101285.98;107899;1288;22055;-61
2023/09/16 08:53:18;;;;;;;6.80;4.80;;;;;;;32.47;47.01;101284.22;107981;1288;22002;-60
2023/09/16 08:55:44;;;;;;;6.70;4.70;;;;;;;32.73;46.49;101282.45;108165;1286;22004;-72
2023/09/16 08:58:10;;;;;;;6.10;5.00;;;;;;;32.96;46.37;101280.20;107782;1288;21984;-59
2023/09/16 09:00:38;;;;;;;6.60;5.30;;;;;;;33.25;46.41;101281.96;107764;1288;21990;-59
2023/09/16 09:03:04;;;;;;;9.10;6.30;;;;;;;33.56;46.11;101280.54;108153;1286;22027;-71
2023/09/16 09:05:32;;;;;;;7.00;5.70;;;;;;;33.71;45.04;101283.84;107854;1288;22008;-60
2023/09/16 09:07:58;;;;;;;6.50;5.30;;;;;;;33.57;44.14;101286.09;108162;1287;23072;-72
2023/09/16 09:10:23;;;;;;;8.40;5.80;;;;;;;33.37;43.92;101286.92;108161;1288;22000;-72
2023/09/16 09:12:49;;;;;;;8.10;5.60;;;;;;;33.25;43.86;101286.20;108117;1287;22009;-72
2023/09/16 09:15:15;;;;;;;7.80;4.80;;;;;;;33.11;43.36;101284.80;107905;1287;22000;-72
2023/09/16 09:17:43;;;;;;;6.10;4.40;;;;;;;32.98;43.57;101282.39;108115;1284;21993;-60
2023/09/16 09:20:11;;;;;;;6.00;5.00;;;;;;;33.18;44.37;101283.78;108203;1288;21989;-59
2023/09/16 09:22:38;;;;;;;5.50;4.50;;;;;;;33.45;44.11;101284.48;108178;1280;22738;-70
2023/09/16 09:25:04;;;;;;;6.50;4.80;;;;;;;33.58;43.36;101289.98;108065;1287;21999;-71
2023/09/16 09:27:30;;;;;;;6.30;4.40;;;;;;;33.61;43.40;101289.72;108066;1288;21988;-69
2023/09/16 09:29:55;;;;;;;5.50;4.50;;;;;;;33.63;43.19;101290.20;108092;1288;21992;-59
2023/09/16 09:32:21;;;;;;;10.20;4.50;;;;;;;33.70;43.29;101291.08;108018;1288;22009;-59
2023/09/16 09:34:47;;;;;;;5.10;3.80;;;;;;;33.91;43.50;101287.58;107632;1288;22032;-70
2023/09/16 09:37:18;;;;;;;6.20;4.10;;;;;;;34.23;43.35;101287.58;107762;1286;21992;-60
2023/09/16 09:39:45;;;;;;;5.80;3.90;;;;;;;34.49;42.92;101290.83;108102;1288;21990;-70
2023/09/16 09:42:19;;;;;;;6.20;3.80;;;;;;;34.60;42.54;101290.89;108153;1288;21992;-71
2023/09/16 09:44:45;;;;;;;4.10;3.60;;;;;;;34.58;42.05;101288.83;108107;1284;23750;-72
2023/09/16 09:47:12;;;;;;;4.70;3.30;;;;;;;34.51;41.75;101288.34;108099;1288;21989;-61
2023/09/16 09:49:38;;;;;;;4.70;3.40;;;;;;;34.50;41.55;101281.22;107843;1288;21990;-59
2023/09/16 09:52:04;;;;;;;4.40;3.20;;;;;;;34.60;41.63;101284.80;108079;1287;21990;-71
2023/09/16 09:54:30;;;;;;;4.80;3.50;;;;;;;34.72;41.53;101286.93;107818;1287;23614;-70
2023/09/16 09:56:56;;;;;;;4.80;3.40;;;;;;;34.75;40.99;101288.46;107730;1287;22028;-71
2023/09/16 09:59:22;;;;;;;6.30;3.10;;;;;;;34.77;41.11;101293.85;108094;1288;21997;-71
2023/09/16 10:01:47;;;;;;;3.10;2.50;;;;;;;34.90;41.26;101296.20;107778;1285;22193;-70
2023/09/16 10:04:13;;;;;;;3.20;2.80;;;;;;;35.05;40.93;101297.65;107802;1288;23646;-70
2023/09/16 10:06:39;;;;;;;3.70;3.00;;;;;;;35.18;40.81;101292.29;108073;1281;21979;-68
2023/09/16 10:09:04;;;;;;;4.80;2.90;;;;;;;35.29;40.28;101290.59;108218;1287;21992;-60
2023/09/16 10:11:32;;;;;;;4.60;2.70;;;;;;;35.29;40.02;101289.20;108176;1283;22002;-71
2023/09/16 10:13:59;;;;;;;4.20;2.60;;;;;;;35.25;39.93;101287.14;108049;1286;22033;-59
2023/09/16 10:16:25;;;;;;;4.60;2.50;;;;;;;35.15;39.49;101293.86;107832;1283;21992;-69
2023/09/16 10:18:51;;;;;;;3.30;2.60;;;;;;;34.90;39.34;101294.92;107935;1276;22463;-59
2023/09/16 10:21:16;;;;;;;3.90;2.60;;;;;;;34.64;39.25;101292.63;107728;1288;22456;-60
2023/09/16 10:23:42;;;;;;;4.80;2.60;;;;;;;34.48;39.15;101289.63;107784;1286;21995;-60
2023/09/16 10:26:08;;;;;;;3.50;2.60;;;;;;;34.34;39.07;101290.65;107744;1288;22026;-61
2023/09/16 10:28:36;;;;;;;3.90;2.90;;;;;;;34.18;38.92;101285.53;108009;1279;21997;-58
2023/09/16 10:31:02;;;;;;;3.00;2.40;;;;;;;33.98;38.99;101286.38;108093;1288;21998;-59
2023/09/16 10:33:28;;;;;;;5.90;3.20;;;;;;;33.91;39.29;101285.03;108116;1281;22033;-70
2023/09/16 10:35:54;;;;;;;3.80;2.90;;;;;;;33.84;38.80;101284.27;108120;1288;21993;-59
2023/09/16 10:38:19;;;;;;;6.20;2.60;;;;;;;33.55;38.26;101282.84;107952;1288;22011;-59
2023/09/16 10:40:45;;;;;;;3.80;2.90;;;;;;;33.23;38.48;101278.92;108150;1288;21991;-59
2023/09/16 10:43:11;;;;;;;5.30;2.80;;;;;;;33.11;38.87;101275.67;108126;1277;22057;-59
2023/09/16 10:45:37;;;;;;;11.00;4.10;;;;;;;33.13;38.91;101272.80;108192;1286;21993;-71
2023/09/16 10:48:04;;;;;;;5.90;3.20;;;;;;;33.15;38.65;101270.61;108246;1288;22765;-60
2023/09/16 10:50:34;;;;;;;4.80;3.10;;;;;;;33.13;38.67;101275.01;108168;1282;21989;-60
2023/09/16 10:53:16;;;;;;;4.50;2.70;;;;;;;32.99;38.16;101277.34;108150;1287;22196;-70
2023/09/16 10:56:08;;;;;;;4.40;2.80;;;;;;;32.76;38.18;101281.61;108128;1286;21996;-59
2023/09/16 10:59:10;;;;;;;3.80;3.10;;;;;;;32.53;38.13;101282.66;107873;1288;23068;-59
2023/09/16 11:01:49;;;;;;;7.30;3.20;;;;;;;32.42;38.65;101280.76;107891;1288;22000;-59
2023/09/16 11:04:18;;;;;;;4.50;2.60;;;;;;;32.47;38.93;101279.76;108196;1288;21990;-60
2023/09/16 11:06:48;;;;;;;7.40;2.60;;;;;;;32.61;39.05;101277.80;108195;1283;21990;-70